sensor_id;sensor_type;location;lat;lon;timestamp;pressure;altitude;pressure_sealevel;temperature;humidity
47710;BME280;33473;51.640;5.892;2023-03-13T00:08:06;100200;;;15.1;54.0
47710;BME280;33473;51.640;5.892;2023-03-13T00:21:26;100100;;;15.1;55.0
47710;BME280;33473;51.640;5.892;2023-03-13T00:34:45;100100;;;15.0;56.0
47710;BME280;33473;51.640;5.892;2023-03-13T00:48:05;100100;;;15.0;57.0
47710;BME280;33473;51.640;5.892;2023-03-13T01:01:25;100100;;;15.0;58.0
47710;BME280;33473;51.640;5.892;2023-03-13T01:14:44;100000;;;14.8;59.0
47710;BME280;33473;51.640;5.892;2023-03-13T01:28:04;100000;;;14.8;60.0
47710;BME280;33473;51.640;5.892;2023-03-13T01:41:24;99900;;;14.9;60.0
47710;BME280;33473;51.640;5.892;2023-03-13T01:54:43;99900;;;14.9;61.0
47710;BME280;33473;51.640;5.892;2023-03-13T02:08:03;99900;;;15.0;62.0
47710;BME280;33473;51.640;5.892;2023-03-13T02:21:23;99800;;;15.2;62.0
47710;BME280;33473;51.640;5.892;2023-03-13T02:34:42;99800;;;15.1;63.0
47710;BME280;33473;51.640;5.892;2023-03-13T02:48:02;99800;;;15.5;63.0
47710;BME280;33473;51.640;5.892;2023-03-13T03:01:22;99800;;;15.6;63.0
47710;BME280;33473;51.640;5.892;2023-03-13T03:14:42;99800;;;15.5;64.0
47710;BME280;33473;51.640;5.892;2023-03-13T03:28:01;99800;;;15.8;64.0
47710;BME280;33473;51.640;5.892;2023-03-13T03:41:21;99800;;;15.9;64.0
47710;BME280;33473;51.640;5.892;2023-03-13T03:54:41;99800;;;15.8;64.0
47710;BME280;33473;51.640;5.892;2023-03-13T04:08:01;99800;;;15.9;65.0
47710;BME280;33473;51.640;5.892;2023-03-13T04:21:20;99700;;;16.3;65.0
47710;BME280;33473;51.640;5.892;2023-03-13T04:34:40;99700;;;16.6;64.0
47710;BME280;33473;51.640;5.892;2023-03-13T04:48:00;99700;;;16.7;64.0
47710;BME280;33473;51.640;5.892;2023-03-13T05:01:20;99700;;;16.9;62.0
47710;BME280;33473;51.640;5.892;2023-03-13T05:14:39;99700;;;17.1;62.0
47710;BME280;33473;51.640;5.892;2023-03-13T05:27:59;99600;;;17.3;61.0
47710;BME280;33473;51.640;5.892;2023-03-13T05:41:19;99600;;;17.0;61.0
47710;BME280;33473;51.640;5.892;2023-03-13T05:54:38;99700;;;17.2;61.0
47710;BME280;33473;51.640;5.892;2023-03-13T06:07:58;99600;;;17.4;59.0
47710;BME280;33473;51.640;5.892;2023-03-13T06:21:18;99700;;;17.4;58.0
47710;BME280;33473;51.640;5.892;2023-03-13T06:34:38;99700;;;17.3;58.0
47710;BME280;33473;51.640;5.892;2023-03-13T06:47:57;99600;;;17.5;56.0
47710;BME280;33473;51.640;5.892;2023-03-13T07:01:17;99600;;;17.5;56.0
47710;BME280;33473;51.640;5.892;2023-03-13T07:14:37;99600;;;17.8;54.0
47710;BME280;33473;51.640;5.892;2023-03-13T07:27:56;99600;;;17.4;54.0
47710;BME280;33473;51.640;5.892;2023-03-13T07:41:16;99600;;;18.1;53.0
47710;BME280;33473;51.640;5.892;2023-03-13T07:54:36;99600;;;18.1;53.0
47710;BME280;33473;51.640;5.892;2023-03-13T08:07:55;99600;;;18.3;53.0
47710;BME280;33473;51.640;5.892;2023-03-13T08:21:15;99600;;;18.1;54.0
47710;BME280;33473;51.640;5.892;2023-03-13T08:34:35;99600;;;18.9;53.0
47710;BME280;33473;51.640;5.892;2023-03-13T08:47:54;99600;;;19.1;52.0
47710;BME280;33473;51.640;5.892;2023-03-13T09:01:14;99600;;;18.5;52.0
47710;BME280;33473;51.640;5.892;2023-03-13T09:14:34;99600;;;18.8;52.0
47710;BME280;33473;51.640;5.892;2023-03-13T09:27:54;99600;;;18.4;52.0
47710;BME280;33473;51.640;5.892;2023-03-13T09:41:13;99500;;;19.0;51.0
47710;BME280;33473;51.640;5.892;2023-03-13T09:54:33;99500;;;21.1;47.0
47710;BME280;33473;51.640;5.892;2023-03-13T10:07:53;99500;;;21.3;46.0
47710;BME280;33473;51.640;5.892;2023-03-13T10:21:12;99500;;;19.3;50.0
47710;BME280;33473;51.640;5.892;2023-03-13T10:34:32;99500;;;19.5;46.0
47710;BME280;33473;51.640;5.892;2023-03-13T10:47:52;99500;;;19.4;47.0
47710;BME280;33473;51.640;5.892;2023-03-13T11:01:11;99400;;;19.8;47.0
47710;BME280;33473;51.640;5.892;2023-03-13T11:14:31;99400;;;20.0;47.0
47710;BME280;33473;51.640;5.892;2023-03-13T11:27:51;99400;;;20.5;44.0
47710;BME280;33473;51.640;5.892;2023-03-13T11:41:10;99400;;;20.4;45.0
47710;BME280;33473;51.640;5.892;2023-03-13T11:54:30;99400;;;20.5;44.0
47710;BME280;33473;51.640;5.892;2023-03-13T12:07:50;99400;;;20.6;43.0
47710;BME280;33473;51.640;5.892;2023-03-13T12:21:09;99300;;;20.5;43.0
47710;BME280;33473;51.640;5.892;2023-03-13T12:34:29;99300;;;20.9;43.0
47710;BME280;33473;51.640;5.892;2023-03-13T12:47:49;99300;;;20.2;44.0
47710;BME280;33473;51.640;5.892;2023-03-13T13:01:09;99300;;;19.3;46.0
47710;BME280;33473;51.640;5.892;2023-03-13T13:14:28;99300;;;19.5;44.0
47710;BME280;33473;51.640;5.892;2023-03-13T13:27:48;99300;;;20.8;42.0
47710;BME280;33473;51.640;5.892;2023-03-13T13:41:08;99300;;;20.9;42.0
47710;BME280;33473;51.640;5.892;2023-03-13T13:54:27;99300;;;20.5;42.0
47710;BME280;33473;51.640;5.892;2023-03-13T14:07:47;99200;;;20.7;39.0
47710;BME280;33473;51.640;5.892;2023-03-13T14:21:07;99200;;;19.7;40.0
47710;BME280;33473;51.640;5.892;2023-03-13T14:34:26;99200;;;20.7;39.0
47710;BME280;33473;51.640;5.892;2023-03-13T14:47:46;99200;;;20.2;40.0
47710;BME280;33473;51.640;5.892;2023-03-13T15:01:06;99200;;;21.3;39.0
47710;BME280;33473;51.640;5.892;2023-03-13T15:14:25;99100;;;20.9;38.0
47710;BME280;33473;51.640;5.892;2023-03-13T15:27:45;99100;;;20.8;37.0
47710;BME280;33473;51.640;5.892;2023-03-13T15:41:05;99100;;;21.1;37.0
47710;BME280;33473;51.640;5.892;2023-03-13T15:54:24;99100;;;20.5;38.0
47710;BME280;33473;51.640;5.892;2023-03-13T16:07:44;99000;;;20.7;36.0
47710;BME280;33473;51.640;5.892;2023-03-13T16:21:03;99000;;;20.8;36.0
47710;BME280;33473;51.640;5.892;2023-03-13T16:34:23;99000;;;20.3;36.0
47710;BME280;33473;51.640;5.892;2023-03-13T16:47:43;99000;;;20.4;35.0
47710;BME280;33473;51.640;5.892;2023-03-13T17:01:03;99000;;;20.5;36.0
47710;BME280;33473;51.640;5.892;2023-03-13T17:14:22;99000;;;20.3;36.0
47710;BME280;33473;51.640;5.892;2023-03-13T17:27:42;99000;;;19.6;37.0
47710;BME280;33473;51.640;5.892;2023-03-13T17:41:02;99000;;;20.0;37.0
47710;BME280;33473;51.640;5.892;2023-03-13T17:54:21;99000;;;19.8;38.0
47710;BME280;33473;51.640;5.892;2023-03-13T18:07:41;99000;;;19.5;40.0
47710;BME280;33473;51.640;5.892;2023-03-13T18:21:01;99000;;;19.3;40.0
47710;BME280;33473;51.640;5.892;2023-03-13T18:34:20;99000;;;19.2;39.0
47710;BME280;33473;51.640;5.892;2023-03-13T18:47:40;98900;;;19.0;40.0
47710;BME280;33473;51.640;5.892;2023-03-13T19:01:00;98900;;;18.5;42.0
47710;BME280;33473;51.640;5.892;2023-03-13T19:14:19;98900;;;18.3;42.0
47710;BME280;33473;51.640;5.892;2023-03-13T19:27:39;98900;;;18.2;42.0
47710;BME280;33473;51.640;5.892;2023-03-13T19:40:59;98900;;;18.2;42.0
47710;BME280;33473;51.640;5.892;2023-03-13T19:54:18;98900;;;17.9;43.0
47710;BME280;33473;51.640;5.892;2023-03-13T20:07:38;98900;;;17.6;44.0
47710;BME280;33473;51.640;5.892;2023-03-13T20:20:58;98900;;;17.4;45.0
47710;BME280;33473;51.640;5.892;2023-03-13T20:34:17;98900;;;17.3;47.0
47710;BME280;33473;51.640;5.892;2023-03-13T20:47:37;98900;;;17.5;47.0
47710;BME280;33473;51.640;5.892;2023-03-13T21:00:57;98900;;;17.8;47.0
47710;BME280;33473;51.640;5.892;2023-03-13T21:14:17;98900;;;17.8;48.0
47710;BME280;33473;51.640;5.892;2023-03-13T21:27:36;98900;;;17.7;48.0
47710;BME280;33473;51.640;5.892;2023-03-13T21:40:56;98900;;;17.6;49.0
47710;BME280;33473;51.640;5.892;2023-03-13T21:54:16;98900;;;17.5;49.0
47710;BME280;33473;51.640;5.892;2023-03-13T22:07:35;98900;;;17.7;48.0
47710;BME280;33473;51.640;5.892;2023-03-13T22:20:55;98900;;;17.5;49.0
47710;BME280;33473;51.640;5.892;2023-03-13T22:34:15;98900;;;17.0;50.0
47710;BME280;33473;51.640;5.892;2023-03-13T22:47:34;98900;;;16.8;51.0
47710;BME280;33473;51.640;5.892;2023-03-13T23:00:54;98900;;;16.8;51.0
47710;BME280;33473;51.640;5.892;2023-03-13T23:14:14;98900;;;16.7;51.0
47710;BME280;33473;51.640;5.892;2023-03-13T23:40:53;98800;;;16.7;51.0
47710;BME280;33473;51.640;5.892;2023-03-13T23:54:13;98800;;;16.7;51.0
